createdAt,value
2019-05-12T00:00:34.890Z,14.00
2019-05-12T00:03:03.506Z,14.00
2019-05-12T00:05:32.131Z,14.00
2019-05-12T00:08:00.822Z,14.00
2019-05-12T00:10:29.606Z,13.80
2019-05-12T00:12:58.425Z,13.80
2019-05-12T00:15:27.979Z,13.60
2019-05-12T00:17:58.728Z,13.60
2019-05-12T00:20:28.366Z,13.70
2019-05-12T00:22:58.824Z,13.70
2019-05-12T00:25:28.311Z,13.70
2019-05-12T00:27:58.689Z,13.70
2019-05-12T00:30:32.272Z,13.80
2019-05-12T00:33:04.716Z,13.80
2019-05-12T00:35:33.438Z,13.90
2019-05-12T00:38:02.052Z,13.90
2019-05-12T00:40:30.730Z,13.90
2019-05-12T00:42:59.351Z,13.90
2019-05-12T00:45:29.168Z,14.00
2019-05-12T00:47:58.618Z,14.00
2019-05-12T00:50:28.892Z,14.00
2019-05-12T00:52:58.281Z,14.00
2019-05-12T00:55:28.861Z,14.00
2019-05-12T00:57:58.155Z,14.00
2019-05-12T01:00:29.155Z,14.00
2019-05-12T01:02:58.217Z,14.00
2019-05-12T01:05:29.222Z,14.10
2019-05-12T01:07:58.284Z,14.10
2019-05-12T01:10:28.597Z,14.10
2019-05-12T01:12:58.266Z,14.20
2019-05-12T01:15:28.727Z,14.20
2019-05-12T01:17:58.477Z,14.30
2019-05-12T01:20:28.300Z,14.30
2019-05-12T01:22:58.183Z,14.30
2019-05-12T01:25:28.996Z,14.30
2019-05-12T01:27:58.829Z,14.30
2019-05-12T01:30:28.508Z,14.30
2019-05-12T01:32:58.200Z,14.20
2019-05-12T01:35:28.069Z,14.20
2019-05-12T01:38:01.113Z,14.20
2019-05-12T01:40:28.648Z,14.20
2019-05-12T01:42:58.473Z,14.20
2019-05-12T01:45:28.773Z,14.20
2019-05-12T01:47:59.131Z,14.20
2019-05-12T01:50:28.578Z,14.20
2019-05-12T01:52:58.887Z,14.20
2019-05-12T01:55:28.201Z,14.20
2019-05-12T01:57:57.704Z,14.10
2019-05-12T02:00:28.283Z,14.10
2019-05-12T02:02:58.414Z,14.10
2019-05-12T02:05:28.209Z,14.10
2019-05-12T02:07:58.721Z,14.10
2019-05-12T02:10:28.560Z,14.10
2019-05-12T02:12:59.318Z,14.10
2019-05-12T02:15:28.226Z,14.00
2019-05-12T02:17:58.906Z,14.10
2019-05-12T02:20:28.872Z,14.10
2019-05-12T02:22:58.466Z,14.10
2019-05-12T02:25:28.651Z,14.10
2019-05-12T02:27:58.347Z,14.10
2019-05-12T02:30:30.396Z,14.10
2019-05-12T02:32:59.522Z,14.10
2019-05-12T02:35:28.023Z,14.00
2019-05-12T02:37:56.731Z,14.00
2019-05-12T02:40:25.644Z,14.00
2019-05-12T02:42:55.182Z,14.00
2019-05-12T02:45:25.899Z,13.90
2019-05-12T02:47:54.856Z,14.00
2019-05-12T02:50:38.057Z,14.00
2019-05-12T02:53:07.404Z,14.00
2019-05-12T02:55:36.327Z,14.00
2019-05-12T02:58:05.916Z,14.00
2019-05-12T03:00:36.192Z,14.10
2019-05-12T03:03:07.648Z,14.10
2019-05-12T03:05:37.701Z,14.10
2019-05-12T03:08:06.363Z,14.20
2019-05-12T03:10:36.537Z,14.20
2019-05-12T03:13:06.701Z,14.10
2019-05-12T03:15:37.022Z,14.10
2019-05-12T03:18:06.764Z,14.10
2019-05-12T03:20:36.121Z,14.20
2019-05-12T03:23:06.277Z,14.20
2019-05-12T03:25:36.610Z,14.10
2019-05-12T03:28:08.497Z,14.10
2019-05-12T03:30:39.484Z,14.20
2019-05-12T03:33:10.540Z,14.10
2019-05-12T03:35:42.563Z,14.10
2019-05-12T03:38:07.599Z,14.10
2019-05-12T03:40:38.305Z,14.10
2019-05-12T03:43:06.553Z,14.10
2019-05-12T03:45:36.322Z,14.00
2019-05-12T03:48:05.926Z,14.00
2019-05-12T03:50:35.695Z,14.00
2019-05-12T03:53:09.845Z,13.90
2019-05-12T03:55:41.492Z,14.00
2019-05-12T03:58:06.305Z,14.00
2019-05-12T04:00:36.174Z,13.80
2019-05-12T04:03:05.711Z,13.80
2019-05-12T04:05:37.871Z,13.70
2019-05-12T04:08:06.899Z,13.70
2019-05-12T04:10:36.769Z,13.70
2019-05-12T04:13:06.033Z,13.70
2019-05-12T04:15:35.659Z,13.70
2019-05-12T04:18:05.949Z,13.60
2019-05-12T04:20:36.058Z,13.60
2019-05-12T04:23:06.369Z,13.70
2019-05-12T04:25:51.149Z,13.70
2019-05-12T04:28:05.981Z,13.70
2019-05-12T04:30:35.544Z,13.70
2019-05-12T04:33:05.497Z,13.70
2019-05-12T04:35:35.384Z,13.70
2019-05-12T04:38:05.499Z,13.70
2019-05-12T04:40:35.985Z,13.70
2019-05-12T04:43:06.472Z,13.70
2019-05-12T04:45:35.828Z,13.70
2019-05-12T04:48:06.054Z,13.60
2019-05-12T04:50:36.159Z,13.70
2019-05-12T04:53:06.538Z,13.70
2019-05-12T04:55:36.752Z,13.70
2019-05-12T04:58:06.012Z,13.80
2019-05-12T05:00:35.771Z,13.80
2019-05-12T05:03:05.768Z,13.80
2019-05-12T05:05:35.984Z,13.80
2019-05-12T05:08:44.043Z,13.90
2019-05-12T05:11:14.568Z,14.00
2019-05-12T05:13:44.341Z,14.00
2019-05-12T05:16:14.330Z,14.10
2019-05-12T05:18:43.953Z,14.20
2019-05-12T05:21:13.856Z,14.30
2019-05-12T05:23:44.299Z,14.30
2019-05-12T05:26:22.056Z,14.50
2019-05-12T05:28:43.911Z,14.60
2019-05-12T05:31:14.009Z,14.70
2019-05-12T05:33:43.455Z,14.80
2019-05-12T05:36:15.268Z,14.80
2019-05-12T05:38:43.689Z,14.80
2019-05-12T05:41:13.390Z,14.90
2019-05-12T05:43:43.811Z,15.10
2019-05-12T05:46:13.829Z,15.20
2019-05-12T05:48:43.891Z,15.30
2019-05-12T05:51:13.673Z,15.30
2019-05-12T05:53:44.265Z,15.20
2019-05-12T05:56:14.385Z,15.20
2019-05-12T05:58:46.972Z,15.20
2019-05-12T06:01:14.103Z,15.20
2019-05-12T06:03:44.190Z,15.30
2019-05-12T06:06:15.269Z,15.40
2019-05-12T06:08:47.025Z,15.40
2019-05-12T06:11:26.522Z,15.40
2019-05-12T06:13:45.991Z,15.50
2019-05-12T06:16:20.668Z,15.60
2019-05-12T06:18:45.251Z,15.60
2019-05-12T06:21:14.112Z,15.60
2019-05-12T06:23:43.486Z,15.60
2019-05-12T06:26:14.021Z,15.70
2019-05-12T06:28:44.049Z,15.80
2019-05-12T06:31:13.811Z,15.80
2019-05-12T06:33:44.679Z,15.90
2019-05-12T06:36:21.745Z,15.90
2019-05-12T06:38:43.753Z,15.90
2019-05-12T06:41:20.311Z,15.90
2019-05-12T06:43:45.311Z,16.00
2019-05-12T06:46:20.442Z,16.00
2019-05-12T06:48:45.539Z,16.00
2019-05-12T06:51:22.211Z,16.00
2019-05-12T06:53:45.076Z,16.00
2019-05-12T06:56:17.627Z,16.10
2019-05-12T06:58:44.376Z,16.20
2019-05-12T07:01:19.130Z,16.30
2019-05-12T07:03:44.048Z,16.40
2019-05-12T07:06:17.517Z,16.50
2019-05-12T07:08:43.937Z,16.60
2019-05-12T07:11:14.255Z,16.70
2019-05-12T07:13:43.679Z,16.80
2019-05-12T07:16:16.616Z,16.80
2019-05-12T07:18:46.224Z,16.80
2019-05-12T07:21:19.699Z,16.90
2019-05-12T07:23:45.501Z,16.90
2019-05-12T07:26:19.371Z,16.90
2019-05-12T07:28:44.750Z,16.90
2019-05-12T07:31:14.293Z,16.90
2019-05-12T07:33:45.859Z,16.90
2019-05-12T07:36:14.033Z,17.00
2019-05-12T07:38:44.819Z,17.00
2019-05-12T07:41:15.245Z,17.10
2019-05-12T07:43:50.643Z,17.10
2019-05-12T07:46:18.183Z,17.20
2019-05-12T07:48:50.849Z,17.30
2019-05-12T07:51:17.457Z,17.40
2019-05-12T07:53:54.490Z,17.50
2019-05-12T07:56:19.656Z,17.50
2019-05-12T07:58:52.912Z,17.60
2019-05-12T08:01:17.715Z,17.80
2019-05-12T08:03:50.861Z,17.80
2019-05-12T08:06:17.000Z,17.90
2019-05-12T08:08:50.544Z,18.00
2019-05-12T08:11:16.337Z,18.10
2019-05-12T08:13:45.092Z,18.10
2019-05-12T08:16:14.347Z,18.20
2019-05-12T08:18:44.592Z,18.20
2019-05-12T08:21:14.071Z,18.20
2019-05-12T08:23:48.243Z,18.10
2019-05-12T08:26:18.606Z,18.20
2019-05-12T08:28:47.763Z,18.40
2019-05-12T08:31:16.552Z,18.60
2019-05-12T08:33:45.384Z,18.50
2019-05-12T08:36:16.432Z,18.60
2019-05-12T08:38:44.656Z,18.60
2019-05-12T08:41:14.612Z,18.80
2019-05-12T08:43:47.034Z,18.80
2019-05-12T08:46:15.721Z,18.80
2019-05-12T08:48:44.811Z,18.90
2019-05-12T08:51:16.884Z,18.80
2019-05-12T08:53:44.169Z,18.80
2019-05-12T08:56:18.951Z,18.70
2019-05-12T08:58:48.099Z,18.50
2019-05-12T09:01:13.958Z,18.50
2019-05-12T09:03:44.251Z,18.60
2019-05-12T09:06:17.928Z,18.70
2019-05-12T09:08:49.336Z,18.80
2019-05-12T09:11:15.441Z,18.80
2019-05-12T09:13:44.262Z,18.90
2019-05-12T09:16:13.847Z,18.90
2019-05-12T09:18:43.463Z,19.00
2019-05-12T09:21:14.088Z,18.90
2019-05-12T09:23:45.423Z,18.90
2019-05-12T09:26:13.647Z,18.90
2019-05-12T09:28:47.374Z,19.00
2019-05-12T09:31:14.101Z,19.20
2019-05-12T09:33:44.554Z,19.30
2019-05-12T09:36:19.890Z,19.30
2019-05-12T09:38:44.136Z,19.40
2019-05-12T09:41:13.930Z,19.30
2019-05-12T09:43:46.271Z,19.40
2019-05-12T09:46:14.464Z,19.40
2019-05-12T09:48:45.673Z,19.50
2019-05-12T09:51:16.942Z,19.60
2019-05-12T09:53:50.856Z,19.60
2019-05-12T09:56:14.747Z,19.60
2019-05-12T09:58:43.738Z,19.70
2019-05-12T10:01:14.035Z,19.90
2019-05-12T10:03:43.761Z,20.10
2019-05-12T10:06:19.509Z,20.10
2019-05-12T10:08:43.584Z,20.20
2019-05-12T10:11:16.568Z,20.40
2019-05-12T10:13:44.984Z,20.60
2019-05-12T10:16:13.517Z,20.70
2019-05-12T10:18:50.777Z,20.90
2019-05-12T10:21:15.511Z,21.10
2019-05-12T10:23:43.616Z,21.30
2019-05-12T10:26:14.687Z,21.10
2019-05-12T10:28:51.538Z,21.20
2019-05-12T10:31:13.961Z,21.40
2019-05-12T10:33:43.355Z,21.50
2019-05-12T10:36:12.220Z,21.60
2019-05-12T10:38:43.307Z,21.60
2019-05-12T10:41:13.349Z,21.60
2019-05-12T10:43:43.329Z,21.70
2019-05-12T10:46:13.197Z,21.80
2019-05-12T10:48:44.230Z,21.90
2019-05-12T10:51:12.681Z,21.70
2019-05-12T10:53:43.260Z,21.70
2019-05-12T10:56:11.922Z,21.80
2019-05-12T10:58:40.729Z,21.70
2019-05-12T11:01:09.515Z,21.90
2019-05-12T11:03:44.200Z,21.90
2019-05-12T11:06:08.774Z,21.80
2019-05-12T11:08:41.401Z,22.00
2019-05-12T11:11:08.103Z,22.20
2019-05-12T11:13:40.332Z,22.30
2019-05-12T11:16:07.364Z,22.10
2019-05-12T11:18:36.189Z,22.10
2019-05-12T11:21:04.998Z,22.40
2019-05-12T11:23:34.468Z,22.80
2019-05-12T11:26:03.890Z,23.20
2019-05-12T11:28:33.659Z,23.70
2019-05-12T11:31:02.729Z,24.10
2019-05-12T11:33:31.544Z,24.20
2019-05-12T11:36:00.376Z,24.30
2019-05-12T11:38:29.180Z,24.50
2019-05-12T11:40:57.968Z,24.50
2019-05-12T11:43:29.674Z,24.60
2019-05-12T11:45:57.253Z,24.30
2019-05-12T11:48:27.449Z,24.20
2019-05-12T11:50:57.672Z,24.10
2019-05-12T11:53:30.822Z,24.10
2019-05-12T11:55:56.939Z,24.00
2019-05-12T11:58:25.775Z,24.00
2019-05-12T12:00:58.729Z,24.30
2019-05-12T12:03:26.594Z,24.40
2019-05-12T12:05:55.306Z,24.80
2019-05-12T12:08:26.484Z,25.20
2019-05-12T12:10:54.698Z,25.60
2019-05-12T12:13:28.269Z,26.30
2019-05-12T12:15:53.945Z,26.40
2019-05-12T12:18:23.499Z,26.30
2019-05-12T12:20:55.059Z,26.70
2019-05-12T12:23:22.923Z,27.40
2019-05-12T12:25:53.518Z,28.30
2019-05-12T12:28:24.169Z,28.80
2019-05-12T12:30:56.936Z,28.70
2019-05-12T12:33:23.561Z,28.80
2019-05-12T12:35:56.544Z,29.20
2019-05-12T12:38:22.883Z,29.50
2019-05-12T12:40:53.646Z,30.00
2019-05-12T12:43:24.681Z,29.80
2019-05-12T12:45:54.511Z,29.80
2019-05-12T12:48:25.552Z,30.50
2019-05-12T12:50:53.799Z,31.20
2019-05-12T12:53:23.827Z,31.80
2019-05-12T12:55:53.755Z,30.30
2019-05-12T12:58:26.987Z,28.60
2019-05-12T13:00:56.268Z,28.60
2019-05-12T13:03:27.726Z,29.00
2019-05-12T13:05:55.670Z,28.40
2019-05-12T13:08:24.739Z,28.00
2019-05-12T13:10:54.348Z,27.30
2019-05-12T13:13:24.517Z,26.10
2019-05-12T13:15:53.651Z,25.60
2019-05-12T13:18:25.666Z,25.70
2019-05-12T13:20:53.972Z,26.10
2019-05-12T13:23:34.744Z,26.20
2019-05-12T13:25:54.674Z,26.20
2019-05-12T13:28:25.938Z,26.40
2019-05-12T13:31:07.615Z,27.00
2019-05-12T13:33:24.626Z,27.60
2019-05-12T13:35:55.708Z,27.00
2019-05-12T13:38:24.032Z,26.20
2019-05-12T13:40:54.034Z,25.90
2019-05-12T13:43:23.773Z,25.50
2019-05-12T13:45:53.520Z,25.50
2019-05-12T13:48:23.997Z,25.40
2019-05-12T13:50:54.354Z,25.80
2019-05-12T13:53:24.318Z,26.00
2019-05-12T13:55:54.273Z,25.80
2019-05-12T13:58:23.275Z,25.80
2019-05-12T14:01:12.301Z,25.80
2019-05-12T14:03:23.342Z,25.70
2019-05-12T14:05:53.055Z,25.30
2019-05-12T14:08:23.800Z,24.90
2019-05-12T14:10:54.509Z,24.30
2019-05-12T14:13:24.565Z,24.00
2019-05-12T14:15:53.786Z,24.00
2019-05-12T14:18:22.649Z,23.80
2019-05-12T14:20:58.882Z,23.70
2019-05-12T14:23:23.836Z,23.60
2019-05-12T14:25:54.302Z,23.70
2019-05-12T14:28:23.442Z,23.70
2019-05-12T14:30:54.466Z,24.60
2019-05-12T14:33:24.717Z,25.20
2019-05-12T14:35:53.787Z,25.40
2019-05-12T14:38:27.413Z,24.90
2019-05-12T14:40:53.760Z,24.40
2019-05-12T14:43:24.125Z,23.70
2019-05-12T14:45:54.170Z,23.30
2019-05-12T14:48:23.142Z,23.00
2019-05-12T14:50:53.509Z,22.70
2019-05-12T14:53:23.751Z,22.60
2019-05-12T14:55:53.582Z,22.50
2019-05-12T14:58:23.772Z,22.60
2019-05-12T15:00:56.301Z,22.40
2019-05-12T15:03:24.154Z,22.20
2019-05-12T15:05:54.517Z,22.10
2019-05-12T15:08:35.655Z,22.10
2019-05-12T15:10:54.071Z,22.00
2019-05-12T15:13:24.017Z,22.00
2019-05-12T15:15:57.972Z,21.90
2019-05-12T15:18:23.448Z,21.90
2019-05-12T15:20:54.274Z,22.00
2019-05-12T15:23:23.849Z,22.10
2019-05-12T15:25:53.797Z,22.10
2019-05-12T15:28:23.629Z,22.20
2019-05-12T15:30:54.149Z,22.20
2019-05-12T15:33:24.385Z,22.20
2019-05-12T15:35:54.758Z,22.20
2019-05-12T15:38:25.388Z,22.20
2019-05-12T15:40:54.182Z,22.30
2019-05-12T15:43:24.372Z,22.20
2019-05-12T15:45:55.467Z,22.10
2019-05-12T15:48:26.145Z,22.10
2019-05-12T15:50:59.052Z,22.00
2019-05-12T15:53:26.844Z,21.90
2019-05-12T15:55:55.197Z,21.80
2019-05-12T15:58:24.687Z,21.80
2019-05-12T16:00:54.443Z,21.70
2019-05-12T16:03:26.551Z,21.50
2019-05-12T16:05:54.811Z,21.40
2019-05-12T16:08:24.490Z,21.30
2019-05-12T16:10:53.622Z,21.30
2019-05-12T16:13:24.296Z,21.20
2019-05-12T16:15:56.034Z,21.10
2019-05-12T16:18:26.724Z,21.10
2019-05-12T16:20:58.929Z,21.00
2019-05-12T16:23:29.903Z,20.90
2019-05-12T16:25:55.181Z,20.80
2019-05-12T16:28:26.582Z,20.80
2019-05-12T16:30:59.035Z,20.70
2019-05-12T16:33:24.851Z,20.60
2019-05-12T16:35:54.552Z,20.50
2019-05-12T16:38:23.719Z,20.50
2019-05-12T16:40:53.877Z,20.40
2019-05-12T16:43:23.768Z,20.30
2019-05-12T16:45:53.780Z,20.20
2019-05-12T16:48:30.459Z,20.10
2019-05-12T16:50:53.210Z,20.00
2019-05-12T16:53:27.538Z,20.00
2019-05-12T16:55:53.276Z,19.90
2019-05-12T16:58:26.096Z,19.80
2019-05-12T17:00:53.458Z,19.80
2019-05-12T17:03:23.889Z,19.80
2019-05-12T17:05:55.716Z,19.70
2019-05-12T17:08:24.645Z,19.60
2019-05-12T17:11:03.127Z,19.50
2019-05-12T17:13:23.899Z,19.50
2019-05-12T17:15:55.378Z,19.40
2019-05-12T17:18:24.704Z,19.30
2019-05-12T17:20:54.568Z,19.20
2019-05-12T17:23:24.568Z,19.10
2019-05-12T17:25:53.722Z,19.00
2019-05-12T17:28:23.847Z,18.90
2019-05-12T17:30:54.403Z,18.80
2019-05-12T17:33:27.372Z,18.70
2019-05-12T17:35:54.015Z,18.70
2019-05-12T17:38:25.198Z,18.60
2019-05-12T17:40:58.789Z,18.50
2019-05-12T17:43:23.744Z,18.50
2019-05-12T17:45:56.817Z,18.40
2019-05-12T17:48:24.367Z,18.30
2019-05-12T17:50:53.935Z,18.30
2019-05-12T17:53:24.051Z,18.30
2019-05-12T17:55:55.722Z,18.20
2019-05-12T17:58:24.212Z,18.10
2019-05-12T18:00:53.295Z,18.10
2019-05-12T18:03:25.562Z,18.10
2019-05-12T18:05:53.483Z,18.00
2019-05-12T18:08:25.510Z,18.00
2019-05-12T18:10:54.484Z,17.90
2019-05-12T18:13:24.979Z,17.90
2019-05-12T18:15:53.790Z,17.90
2019-05-12T18:18:31.137Z,17.90
2019-05-12T18:20:55.552Z,17.80
2019-05-12T18:23:26.273Z,17.80
2019-05-12T18:25:53.990Z,17.70
2019-05-12T18:28:27.496Z,17.70
2019-05-12T18:30:54.515Z,17.60
2019-05-12T18:33:33.214Z,17.60
2019-05-12T18:35:54.485Z,17.60
2019-05-12T18:38:26.528Z,17.50
2019-05-12T18:40:54.126Z,17.50
2019-05-12T18:43:24.271Z,17.40
2019-05-12T18:45:56.996Z,17.40
2019-05-12T18:48:25.289Z,17.30
2019-05-12T18:50:54.222Z,17.20
2019-05-12T18:53:27.961Z,17.20
2019-05-12T18:55:55.475Z,17.10
2019-05-12T18:58:30.566Z,17.10
2019-05-12T19:00:54.753Z,17.10
2019-05-12T19:03:25.398Z,17.10
2019-05-12T19:05:55.269Z,17.00
2019-05-12T19:08:24.600Z,17.00
2019-05-12T19:10:53.449Z,17.00
2019-05-12T19:13:22.381Z,16.90
2019-05-12T19:15:52.582Z,16.90
2019-05-12T19:18:26.654Z,16.90
2019-05-12T19:20:54.195Z,16.90
2019-05-12T19:23:26.836Z,16.80
2019-05-12T19:25:54.113Z,16.80
2019-05-12T19:28:23.851Z,16.70
2019-05-12T19:30:54.670Z,16.70
2019-05-12T19:33:23.265Z,16.70
2019-05-12T19:35:59.927Z,16.60
2019-05-12T19:38:23.979Z,16.60
2019-05-12T19:41:00.059Z,16.50
2019-05-12T19:43:23.878Z,16.50
2019-05-12T19:46:01.969Z,16.50
2019-05-12T19:48:27.294Z,16.50
2019-05-12T19:50:56.993Z,16.40
2019-05-12T19:53:24.133Z,16.40
2019-05-12T19:55:52.924Z,16.40
2019-05-12T19:58:23.762Z,16.30
2019-05-12T20:00:54.148Z,16.30
2019-05-12T20:03:24.210Z,16.30
2019-05-12T20:05:53.828Z,16.30
2019-05-12T20:08:22.832Z,16.30
2019-05-12T20:10:54.150Z,16.30
2019-05-12T20:13:24.119Z,16.30
2019-05-12T20:15:53.097Z,16.20
2019-05-12T20:18:23.575Z,16.20
2019-05-12T20:20:54.376Z,16.20
2019-05-12T20:23:24.570Z,16.10
2019-05-12T20:25:53.555Z,16.00
2019-05-12T20:28:24.222Z,16.00
2019-05-12T20:31:00.754Z,15.90
2019-05-12T20:33:24.902Z,15.90
2019-05-12T20:35:54.655Z,15.80
2019-05-12T20:38:27.239Z,15.80
2019-05-12T20:40:54.320Z,15.70
2019-05-12T20:43:32.277Z,15.70
2019-05-12T20:45:54.820Z,15.70
2019-05-12T20:48:28.607Z,15.70
2019-05-12T20:50:54.104Z,15.70
2019-05-12T20:53:31.635Z,15.70
2019-05-12T20:55:54.782Z,15.60
2019-05-12T20:58:28.594Z,15.60
2019-05-12T21:00:54.125Z,15.60
2019-05-12T21:03:24.285Z,15.60
2019-05-12T21:05:58.008Z,15.60
2019-05-12T21:08:23.787Z,15.60
2019-05-12T21:10:54.178Z,15.50
2019-05-12T21:13:27.172Z,15.50
2019-05-12T21:15:54.240Z,15.50
2019-05-12T21:18:23.804Z,15.50
2019-05-12T21:20:54.684Z,15.40
2019-05-12T21:23:24.138Z,15.40
2019-05-12T21:25:58.254Z,15.40
2019-05-12T21:28:24.732Z,15.30
2019-05-12T21:30:55.810Z,15.30
2019-05-12T21:33:24.142Z,15.20
2019-05-12T21:35:54.582Z,15.20
2019-05-12T21:38:27.555Z,15.10
2019-05-12T21:40:54.233Z,15.10
2019-05-12T21:43:23.042Z,15.10
2019-05-12T21:45:53.727Z,15.10
2019-05-12T21:48:25.570Z,15.00
2019-05-12T21:50:53.144Z,14.90
2019-05-12T21:53:23.853Z,14.90
2019-05-12T21:55:55.187Z,14.80
2019-05-12T21:58:23.305Z,14.80
2019-05-12T22:01:00.038Z,14.70
2019-05-12T22:03:26.096Z,14.70
2019-05-12T22:05:55.763Z,14.70
2019-05-12T22:08:26.282Z,14.60
2019-05-12T22:10:55.224Z,14.50
2019-05-12T22:13:26.371Z,14.50
2019-05-12T22:15:56.953Z,14.40
2019-05-12T22:18:25.641Z,14.40
2019-05-12T22:21:01.328Z,14.30
2019-05-12T22:23:24.964Z,14.30
2019-05-12T22:25:55.785Z,14.20
2019-05-12T22:28:24.166Z,14.10
2019-05-12T22:30:54.150Z,14.10
2019-05-12T22:33:24.221Z,14.10
2019-05-12T22:36:02.758Z,14.00
2019-05-12T22:38:24.814Z,14.00
2019-05-12T22:40:59.632Z,13.90
2019-05-12T22:43:31.360Z,13.90
2019-05-12T22:45:59.189Z,13.80
2019-05-12T22:48:29.869Z,13.80
2019-05-12T22:50:58.466Z,13.70
2019-05-12T22:53:30.110Z,13.70
2019-05-12T22:56:02.990Z,13.60
2019-05-12T22:58:28.181Z,13.60
2019-05-12T23:01:00.851Z,13.60
2019-05-12T23:03:27.411Z,13.50
2019-05-12T23:05:59.811Z,13.50
2019-05-12T23:08:26.656Z,13.50
2019-05-12T23:10:56.186Z,13.40
2019-05-12T23:13:25.159Z,13.40
2019-05-12T23:15:53.952Z,13.40
2019-05-12T23:18:28.774Z,13.30
2019-05-12T23:20:54.165Z,13.40
2019-05-12T23:23:24.377Z,13.30
2019-05-12T23:26:00.227Z,13.30
2019-05-12T23:28:23.746Z,13.20
2019-05-12T23:30:53.531Z,13.20
2019-05-12T23:33:25.574Z,13.10
2019-05-12T23:35:53.557Z,13.10
2019-05-12T23:38:24.398Z,13.10
2019-05-12T23:40:53.754Z,13.10
2019-05-12T23:43:23.749Z,13.10
2019-05-12T23:45:53.323Z,13.10
2019-05-12T23:48:22.382Z,13.10
2019-05-12T23:50:51.198Z,13.10
2019-05-12T23:53:19.987Z,13.10
2019-05-12T23:55:48.803Z,13.20
2019-05-12T23:58:17.576Z,13.20
